Time;durP1;ratioP1;P1;durP2;ratioP2;P2;SDS_P1;SDS_P2;PMS_P1;PMS_P2;Temp;Humidity;BMP_temperature;BMP_pressure;BME280_temperature;BME280_humidity;BME280_pressure;Samples;Min_cycle;Max_cycle;Signal;HPM_P1;HPM_P2
2021/01/11 00:02:16;;;;;;;17.95;10.80;;;;;;;0.96;83.81;101024.72;1712749;82;25892;-82
2021/01/11 00:04:42;;;;;;;17.48;9.58;;;;;;;0.94;83.73;101022.22;1713393;82;25902;-82
2021/01/11 00:07:11;;;;;;;16.30;10.58;;;;;;;0.92;83.57;101018.08;1674884;83;25473;-81
2021/01/11 00:09:38;;;;;;;18.07;10.65;;;;;;;0.94;83.63;101029.95;1714855;82;26596;-82
2021/01/11 00:12:07;;;;;;;17.77;10.10;;;;;;;0.91;83.28;101030.13;1681765;83;25846;-82
2021/01/11 00:14:33;;;;;;;15.72;9.25;;;;;;;0.90;83.33;101024.61;1718985;81;26250;-82
2021/01/11 00:17:00;;;;;;;15.15;9.05;;;;;;;0.89;83.32;101029.37;1682029;83;25798;-81
2021/01/11 00:19:26;;;;;;;13.48;8.30;;;;;;;0.86;82.83;101032.12;1724192;81;26402;-82
2021/01/11 00:21:52;;;;;;;15.58;9.65;;;;;;;0.81;82.67;101034.12;1703248;82;25810;-82
2021/01/11 00:24:19;;;;;;;14.10;8.75;;;;;;;0.78;82.68;101030.43;1705621;82;25777;-82
2021/01/11 00:26:52;;;;;;;13.72;8.38;;;;;;;0.76;82.64;101036.11;1679165;83;25796;-81
2021/01/11 00:29:22;;;;;;;15.25;8.35;;;;;;;0.71;82.70;101026.53;1726428;81;25535;-82
2021/01/11 00:31:49;;;;;;;13.50;8.65;;;;;;;0.73;82.53;101043.54;1706149;82;32042;-82
2021/01/11 00:34:16;;;;;;;13.45;8.98;;;;;;;0.70;82.39;101038.56;1703207;82;25794;-82
2021/01/11 00:36:48;;;;;;;16.10;9.25;;;;;;;0.71;82.53;101043.25;1684502;83;26756;-81
2021/01/11 00:39:14;;;;;;;16.82;10.08;;;;;;;0.72;82.48;101041.07;1713967;83;25612;-81
2021/01/11 00:41:41;;;;;;;15.40;9.70;;;;;;;0.74;82.48;101047.80;1716108;82;25646;-81
2021/01/11 00:44:08;;;;;;;17.85;10.38;;;;;;;0.75;82.61;101046.05;1711288;82;25757;-80
2021/01/11 00:46:34;;;;;;;19.57;10.90;;;;;;;0.76;82.34;101052.38;1679629;83;26217;-81
2021/01/11 00:49:01;;;;;;;19.07;12.20;;;;;;;0.72;82.23;101049.61;1698704;82;25960;-81
2021/01/11 00:51:27;;;;;;;17.95;10.55;;;;;;;0.62;82.28;101035.59;1698492;82;25811;-81
2021/01/11 00:53:55;;;;;;;21.17;12.28;;;;;;;0.69;81.87;101053.64;1700064;82;25686;-80
2021/01/11 00:56:22;;;;;;;17.45;10.45;;;;;;;0.65;82.18;101052.99;1690696;82;26495;-82
2021/01/11 00:58:48;;;;;;;18.92;11.63;;;;;;;0.68;82.32;101054.53;1696424;82;26589;-82
2021/01/11 01:01:16;;;;;;;18.02;11.33;;;;;;;0.69;82.31;101061.82;1699192;82;26406;-81
2021/01/11 01:03:43;;;;;;;16.97;10.85;;;;;;;0.69;82.18;101060.07;1698540;82;25782;-81
2021/01/11 01:06:11;;;;;;;19.45;10.72;;;;;;;0.69;82.08;101065.22;1700180;82;25757;-82
2021/01/11 01:08:38;;;;;;;21.45;12.37;;;;;;;0.69;82.19;101064.39;1695298;82;25964;-82
2021/01/11 01:11:07;;;;;;;17.25;11.12;;;;;;;0.71;82.19;101060.83;1698919;82;25645;-82
2021/01/11 01:13:33;;;;;;;16.50;10.90;;;;;;;0.72;82.08;101071.48;1695293;82;26413;-82
2021/01/11 01:16:00;;;;;;;17.52;10.70;;;;;;;0.71;82.06;101071.12;1699313;82;25777;-81
2021/01/11 01:18:26;;;;;;;16.27;10.38;;;;;;;0.71;82.06;101072.41;1696884;82;25811;-81
2021/01/11 01:20:53;;;;;;;16.30;10.18;;;;;;;0.72;81.95;101068.08;1700769;82;25810;-80
2021/01/11 01:23:19;;;;;;;18.62;11.10;;;;;;;0.66;81.50;101064.92;1697435;82;25821;-82
2021/01/11 01:25:46;;;;;;;18.30;10.48;;;;;;;0.57;81.10;101066.73;1699761;82;26344;-80
2021/01/11 01:28:12;;;;;;;17.77;11.03;;;;;;;0.52;80.91;101068.72;1697189;82;25851;-82
2021/01/11 01:30:38;;;;;;;17.62;10.35;;;;;;;0.49;81.33;101070.59;1697963;82;26278;-82
2021/01/11 01:33:05;;;;;;;20.35;10.72;;;;;;;0.49;81.57;101069.31;1699645;82;25782;-82
2021/01/11 01:35:32;;;;;;;22.95;12.15;;;;;;;0.49;81.54;101065.45;1699079;82;25835;-82
2021/01/11 01:37:58;;;;;;;22.35;12.05;;;;;;;0.52;81.77;101053.28;1699833;82;25719;-81
2021/01/11 01:40:25;;;;;;;21.93;12.23;;;;;;;0.55;81.92;101054.40;1708425;83;25791;-81
2021/01/11 01:42:53;;;;;;;19.48;11.90;;;;;;;0.59;81.94;101048.62;1680912;83;26327;-80
2021/01/11 01:45:20;;;;;;;20.32;11.28;;;;;;;0.63;81.89;101048.84;1705158;82;25412;-80
2021/01/11 01:47:47;;;;;;;18.45;11.65;;;;;;;0.64;81.88;101049.20;1703805;82;25692;-81
2021/01/11 01:50:14;;;;;;;17.60;11.68;;;;;;;0.66;81.87;101052.06;1704270;82;25837;-81
2021/01/11 01:52:42;;;;;;;20.37;12.00;;;;;;;0.69;81.95;101049.78;1706613;82;25838;-80
2021/01/11 01:55:12;;;;;;;21.40;11.78;;;;;;;0.71;82.00;101049.69;1703170;82;26376;-80
2021/01/11 01:57:40;;;;;;;28.70;14.53;;;;;;;0.73;82.02;101051.26;1704724;82;25995;-81
2021/01/11 02:00:11;;;;;;;23.12;13.15;;;;;;;0.76;81.93;101055.41;1700468;83;25829;-81
2021/01/11 02:02:40;;;;;;;23.07;13.85;;;;;;;0.73;81.73;101053.01;1703291;82;25880;-80
2021/01/11 02:05:08;;;;;;;30.35;14.07;;;;;;;0.72;81.83;101053.93;1701882;82;25881;-80
2021/01/11 02:07:42;;;;;;;20.45;12.25;;;;;;;0.71;81.87;101055.68;1703409;82;25821;-80
2021/01/11 02:10:45;;;;;;;21.25;12.07;;;;;;;0.72;81.88;101046.22;1703048;82;25840;-81
2021/01/11 02:13:35;;;;;;;17.20;10.82;;;;;;;0.74;81.99;101041.36;1698500;82;25835;-81
2021/01/11 02:16:15;;;;;;;22.42;12.70;;;;;;;0.73;82.00;101039.68;1698409;83;26600;-81
2021/01/11 02:18:48;;;;;;;;;;;;;;;0.76;81.95;101039.51;1704381;82;25710;-80
2021/01/11 02:21:32;;;;;;;18.82;11.12;;;;;;;0.75;82.00;101036.58;1700883;82;25712;-81
2021/01/11 02:24:22;;;;;;;22.55;13.72;;;;;;;0.75;82.01;101034.00;1699598;83;25755;-81
2021/01/11 02:27:06;;;;;;;22.70;13.38;;;;;;;0.74;81.92;101024.64;1690505;82;27009;-80
2021/01/11 02:30:18;;;;;;;22.50;13.75;;;;;;;0.76;81.95;101024.53;1692913;82;25902;-81
2021/01/11 02:33:02;;;;;;;33.02;17.60;;;;;;;0.79;82.01;101020.50;1693722;82;25781;-81
2021/01/11 02:35:31;;;;;;;29.65;16.65;;;;;;;0.74;81.64;101026.39;1686900;82;25821;-81
2021/01/11 02:37:59;;;;;;;38.67;18.45;;;;;;;0.70;81.70;101025.70;1695480;82;25713;-82
2021/01/11 02:40:26;;;;;;;29.87;16.57;;;;;;;0.71;81.78;101024.81;1695602;82;26391;-80
2021/01/11 02:42:52;;;;;;;27.87;17.20;;;;;;;0.70;81.57;101023.13;1694076;82;26426;-80
2021/01/11 02:45:19;;;;;;;27.77;16.57;;;;;;;0.65;81.46;101018.27;1686863;82;25971;-80
2021/01/11 02:47:51;;;;;;;30.60;17.98;;;;;;;0.58;81.33;101023.36;1698994;82;25877;-80
2021/01/11 02:50:23;;;;;;;29.10;16.23;;;;;;;0.55;81.44;101020.14;1700224;82;25733;-82
2021/01/11 02:53:25;;;;;;;30.77;17.37;;;;;;;0.55;81.72;101022.25;1697142;82;26389;-81
2021/01/11 02:56:02;;;;;;;28.70;18.45;;;;;;;0.56;81.77;101022.61;1700152;82;25857;-81
2021/01/11 02:58:56;;;;;;;27.22;18.10;;;;;;;0.57;81.66;101010.58;1696111;82;25725;-81
2021/01/11 03:01:27;;;;;;;29.10;18.30;;;;;;;0.57;81.56;101009.28;1698566;82;25976;-81
2021/01/11 03:03:55;;;;;;;31.62;18.45;;;;;;;0.56;81.56;101004.61;1677830;82;26385;-81
2021/01/11 03:06:28;;;;;;;37.83;21.50;;;;;;;0.59;81.67;101007.00;1660829;84;26415;-80
2021/01/11 03:09:07;;;;;;;37.60;20.23;;;;;;;0.61;81.72;101000.50;1699256;82;25774;-80
2021/01/11 03:11:37;;;;;;;45.10;21.45;;;;;;;0.60;81.61;100995.82;1656599;85;25856;-81
2021/01/11 03:14:04;;;;;;;42.50;22.15;;;;;;;0.61;81.56;100997.47;1696490;82;26404;-81
2021/01/11 03:16:30;;;;;;;38.73;20.52;;;;;;;0.63;81.76;100995.65;1699700;82;25836;-82
2021/01/11 03:18:57;;;;;;;36.77;20.40;;;;;;;0.70;81.79;100992.73;1700122;82;26404;-80
2021/01/11 03:21:23;;;;;;;29.37;18.85;;;;;;;0.70;81.65;100988.41;1700548;82;25820;-82
2021/01/11 03:23:50;;;;;;;28.92;18.45;;;;;;;0.68;81.68;100981.22;1699990;82;25792;-80
2021/01/11 03:26:24;;;;;;;31.37;19.40;;;;;;;0.67;81.72;100978.29;1698087;82;25749;-81
2021/01/11 03:28:50;;;;;;;30.62;20.92;;;;;;;0.65;81.68;100982.25;1697004;82;25851;-81
2021/01/11 03:31:17;;;;;;;31.33;20.10;;;;;;;0.64;81.83;100980.58;1697002;82;25849;-82
2021/01/11 03:33:43;;;;;;;35.90;19.70;;;;;;;0.67;81.70;100984.72;1688428;82;26038;-82
2021/01/11 03:36:10;;;;;;;33.67;19.60;;;;;;;0.69;81.72;100987.22;1696540;82;25965;-80
2021/01/11 03:38:38;;;;;;;32.30;20.90;;;;;;;0.69;81.64;100984.19;1696466;82;26516;-80
2021/01/11 03:41:08;;;;;;;33.58;19.82;;;;;;;0.69;81.81;100980.33;1657167;85;25910;-81
2021/01/11 03:43:37;;;;;;;30.88;21.45;;;;;;;0.68;81.76;100979.11;1698866;82;25948;-80
2021/01/11 03:46:05;;;;;;;30.72;20.52;;;;;;;0.69;81.81;100978.22;1699230;82;25510;-82
2021/01/11 03:48:31;;;;;;;31.97;20.23;;;;;;;0.72;81.84;100972.90;1695350;82;26238;-82
2021/01/11 03:50:59;;;;;;;32.80;20.90;;;;;;;0.72;81.73;100969.86;1693029;82;25845;-81
2021/01/11 03:53:25;;;;;;;31.65;20.27;;;;;;;0.71;81.76;100974.65;1689782;82;25787;-81
2021/01/11 03:55:52;;;;;;;32.55;20.23;;;;;;;0.70;81.81;100975.55;1694355;82;25721;-81
2021/01/11 03:58:19;;;;;;;30.43;19.35;;;;;;;0.71;81.82;100975.94;1702291;82;25985;-81
2021/01/11 04:00:48;;;;;;;42.73;21.82;;;;;;;0.71;81.77;100972.51;1702734;82;25915;-80
2021/01/11 04:03:16;;;;;;;34.67;20.62;;;;;;;0.70;81.51;100975.55;1701590;82;25827;-81
2021/01/11 04:05:45;;;;;;;29.07;18.90;;;;;;;0.63;81.40;100968.64;1700673;82;25772;-80
2021/01/11 04:08:13;;;;;;;32.60;20.07;;;;;;;0.62;81.39;100966.97;1688837;82;25848;-81
2021/01/11 04:10:39;;;;;;;34.78;19.73;;;;;;;0.56;81.22;100964.74;1689416;82;25805;-82
2021/01/11 04:13:06;;;;;;;30.40;18.75;;;;;;;0.55;81.45;100968.24;1693223;82;26224;-80
2021/01/11 04:15:34;;;;;;;37.58;20.75;;;;;;;0.57;81.49;100966.85;1692883;82;25797;-81
2021/01/11 04:18:02;;;;;;;39.83;21.95;;;;;;;0.59;81.55;100963.28;1694172;82;25697;-81
2021/01/11 04:20:28;;;;;;;37.15;21.52;;;;;;;0.59;81.58;100959.42;1705190;82;25881;-80
2021/01/11 04:22:56;;;;;;;37.70;20.92;;;;;;;0.62;81.50;100955.39;1704166;82;25783;-80
2021/01/11 04:25:24;;;;;;;44.03;22.73;;;;;;;0.61;81.33;100952.45;1700877;82;26423;-80
2021/01/11 04:27:57;;;;;;;51.13;25.43;;;;;;;0.60;81.45;100949.53;1706668;82;26433;-81
2021/01/11 04:30:25;;;;;;;49.40;23.47;;;;;;;0.62;81.50;100945.56;1698460;82;25511;-81
2021/01/11 04:32:52;;;;;;;48.58;24.20;;;;;;;0.62;81.38;100943.81;1678121;82;25667;-82
2021/01/11 04:35:22;;;;;;;46.58;22.98;;;;;;;0.62;81.46;100941.70;1695136;82;25756;-81
2021/01/11 04:37:49;;;;;;;55.67;24.52;;;;;;;0.65;81.56;100947.53;1701811;83;25813;-81
2021/01/11 04:40:16;;;;;;;46.68;23.32;;;;;;;0.66;81.40;100944.03;1700547;83;25841;-81
2021/01/11 04:42:56;;;;;;;53.42;24.75;;;;;;;0.64;81.41;100940.70;1703506;82;25782;-80
2021/01/11 04:45:24;;;;;;;58.42;25.23;;;;;;;0.66;81.38;100944.03;1702527;82;26692;-81
2021/01/11 04:47:54;;;;;;;52.62;24.98;;;;;;;0.67;81.49;100946.14;1704201;82;25836;-81
2021/01/11 04:50:22;;;;;;;41.90;23.62;;;;;;;0.68;81.39;100945.67;1702061;82;25917;-81
2021/01/11 04:52:50;;;;;;;43.13;22.77;;;;;;;0.65;81.24;100946.24;1694450;82;26297;-81
2021/01/11 04:55:18;;;;;;;48.58;23.00;;;;;;;0.64;81.42;100943.74;1703490;83;25798;-81
2021/01/11 04:57:58;;;;;;;57.75;23.25;;;;;;;0.65;81.44;100938.52;1707004;82;25791;-80
2021/01/11 05:00:29;;;;;;;53.48;24.82;;;;;;;0.66;81.47;100939.34;1701480;82;25539;-81
2021/01/11 05:03:04;;;;;;;54.53;23.83;;;;;;;0.66;81.43;100943.20;1704645;82;25737;-81
2021/01/11 05:05:35;;;;;;;50.00;23.18;;;;;;;0.68;81.43;100937.95;1700373;82;26315;-81
2021/01/11 05:08:02;;;;;;;46.40;22.77;;;;;;;0.65;81.47;100937.23;1696512;82;25908;-82
2021/01/11 05:10:32;;;;;;;46.55;23.50;;;;;;;0.65;81.61;100934.66;1704959;82;26232;-82
2021/01/11 05:13:01;;;;;;;49.88;25.43;;;;;;;0.69;81.55;100939.63;1706321;83;34715;-80
2021/01/11 05:15:31;;;;;;;49.88;24.10;;;;;;;0.71;81.54;100937.78;1699824;82;25800;-80
2021/01/11 05:17:58;;;;;;;56.15;25.85;;;;;;;0.70;81.54;100938.23;1702582;82;25728;-81
2021/01/11 05:20:32;;;;;;;63.87;26.80;;;;;;;0.71;81.48;100936.06;1702540;82;25812;-81
2021/01/11 05:23:03;;;;;;;44.95;22.82;;;;;;;0.69;81.37;100937.88;1703556;82;25776;-81
2021/01/11 05:25:35;;;;;;;40.45;23.22;;;;;;;0.65;81.33;100928.23;1700195;82;25990;-81
2021/01/11 05:28:14;;;;;;;33.10;18.75;;;;;;;0.63;81.40;100930.06;1699030;82;25820;-80
2021/01/11 05:30:43;;;;;;;32.73;20.27;;;;;;;0.62;81.45;100928.84;1703069;82;25809;-79
2021/01/11 05:33:22;;;;;;;29.30;18.75;;;;;;;0.58;81.35;100927.38;1706576;82;25344;-80
2021/01/11 05:36:06;;;;;;;30.80;19.07;;;;;;;0.53;81.46;100922.48;1697664;83;25896;-81
2021/01/11 05:38:46;;;;;;;35.43;21.57;;;;;;;0.55;81.46;100919.38;1704713;82;25737;-81
2021/01/11 05:41:24;;;;;;;34.75;19.00;;;;;;;0.53;81.46;100916.52;1702047;82;25855;-79
2021/01/11 05:44:13;;;;;;;34.13;21.80;;;;;;;0.52;81.43;100912.27;1698446;82;25758;-80
2021/01/11 05:46:41;;;;;;;32.53;19.27;;;;;;;0.50;81.43;100916.23;1704510;82;25760;-79
2021/01/11 05:49:11;;;;;;;29.20;18.95;;;;;;;0.47;81.42;100916.41;1705480;82;25688;-80
2021/01/11 05:51:39;;;;;;;31.55;20.50;;;;;;;0.47;81.65;100918.16;1704355;82;25833;-80
2021/01/11 05:54:10;;;;;;;38.50;22.20;;;;;;;0.44;81.57;100914.84;1700765;82;25830;-81
2021/01/11 05:56:55;;;;;;;42.23;22.87;;;;;;;0.45;81.61;100920.80;1698407;82;25725;-79
2021/01/11 05:59:22;;;;;;;41.20;22.30;;;;;;;0.46;81.55;100922.91;1701504;82;25697;-80
2021/01/11 06:01:49;;;;;;;46.08;24.23;;;;;;;0.44;81.55;100924.30;1703690;82;26386;-80
2021/01/11 06:04:16;;;;;;;57.62;25.17;;;;;;;0.42;81.54;100926.12;1707124;82;26504;-80
2021/01/11 06:06:42;;;;;;;52.05;25.05;;;;;;;0.42;81.64;100926.94;1702065;82;25689;-79
2021/01/11 06:09:09;;;;;;;49.18;23.27;;;;;;;0.41;81.60;100924.47;1699545;82;26009;-79
2021/01/11 06:11:37;;;;;;;47.65;23.42;;;;;;;0.38;81.55;100925.47;1700443;83;25744;-79
2021/01/11 06:14:05;;;;;;;47.53;23.40;;;;;;;0.37;81.56;100928.11;1702009;83;26371;-79
2021/01/11 06:16:33;;;;;;;42.23;23.18;;;;;;;0.34;81.58;100924.43;1701476;82;25797;-80
2021/01/11 06:19:00;;;;;;;48.00;24.45;;;;;;;0.31;81.66;100931.03;1706411;82;26356;-79
2021/01/11 06:21:27;;;;;;;46.00;25.15;;;;;;;0.34;81.71;100939.86;1706023;82;25814;-79
2021/01/11 06:24:14;;;;;;;51.28;25.60;;;;;;;0.33;81.67;100939.03;1680195;84;25937;-80
2021/01/11 06:26:43;;;;;;;52.05;25.23;;;;;;;0.33;81.68;100938.21;1678980;83;26476;-80
2021/01/11 06:29:30;;;;;;;44.42;24.90;;;;;;;0.30;81.58;100935.35;1676933;84;26535;-79
2021/01/11 06:32:01;;;;;;;44.20;23.62;;;;;;;0.28;81.64;100941.48;1674100;83;25796;-80
2021/01/11 06:34:35;;;;;;;39.78;21.62;;;;;;;0.25;81.67;100935.23;1698508;80;25716;-79
2021/01/11 06:37:06;;;;;;;36.85;21.40;;;;;;;0.24;81.70;100943.84;1703075;82;25480;-80
2021/01/11 06:39:33;;;;;;;38.85;21.05;;;;;;;0.22;81.69;100946.52;1702623;82;25689;-80
2021/01/11 06:42:01;;;;;;;40.45;20.40;;;;;;;0.17;81.63;100948.04;1704281;83;25905;-80
2021/01/11 06:44:28;;;;;;;36.60;21.30;;;;;;;0.15;81.77;100952.89;1675245;83;26466;-79
2021/01/11 06:46:55;;;;;;;33.18;19.48;;;;;;;0.12;81.71;100951.31;1716251;81;25836;-80
2021/01/11 06:49:27;;;;;;;36.10;21.65;;;;;;;0.10;81.76;100954.41;1703320;81;25738;-80
2021/01/11 06:52:07;;;;;;;34.88;21.33;;;;;;;0.08;81.82;100952.41;1725950;82;26326;-80
2021/01/11 06:54:44;;;;;;;37.67;21.07;;;;;;;0.11;82.01;100950.09;1693921;84;26351;-79
2021/01/11 06:57:16;;;;;;;33.08;21.15;;;;;;;0.14;81.93;100944.81;1694921;84;26487;-79
2021/01/11 06:59:47;;;;;;;36.55;20.40;;;;;;;0.06;81.76;100940.55;1692199;83;25824;-79
2021/01/11 07:02:26;;;;;;;36.33;21.68;;;;;;;0.03;81.88;100945.39;1723199;81;25808;-79
2021/01/11 07:04:53;;;;;;;36.15;22.42;;;;;;;0.01;81.89;100948.50;1694462;83;26616;-78
2021/01/11 07:07:25;;;;;;;37.63;23.02;;;;;;;-0.06;81.86;100939.45;1688954;83;25755;-79
2021/01/11 07:09:59;;;;;;;35.80;22.73;;;;;;;-0.04;82.10;100941.48;1726080;82;25472;-79
2021/01/11 07:12:27;;;;;;;52.15;33.10;;;;;;;-0.04;82.11;100944.88;1725740;81;25965;-79
2021/01/11 07:15:04;;;;;;;99.67;59.58;;;;;;;-0.05;82.18;100948.83;1721398;81;25797;-79
2021/01/11 07:17:47;;;;;;;76.50;44.75;;;;;;;-0.04;82.24;100955.16;1717441;81;25772;-79
2021/01/11 07:20:15;;;;;;;52.53;30.70;;;;;;;-0.04;82.21;100954.33;1722126;81;26653;-81
2021/01/11 07:22:47;;;;;;;45.50;30.62;;;;;;;-0.08;82.28;100955.42;1693682;83;25866;-81
2021/01/11 07:25:25;;;;;;;42.17;25.20;;;;;;;-0.09;82.32;100957.59;1686898;83;25843;-80
2021/01/11 07:28:00;;;;;;;44.83;28.83;;;;;;;-0.04;82.54;100956.91;1722952;81;25721;-80
2021/01/11 07:30:33;;;;;;;39.65;24.52;;;;;;;0.01;82.53;100956.20;1725469;81;26245;-80
2021/01/11 07:32:57;;;;;;;42.90;26.95;;;;;;;0.03;82.59;100959.53;1724259;81;25652;-81
2021/01/11 07:35:23;;;;;;;45.17;26.42;;;;;;;0.01;82.46;100960.06;1696578;83;25556;-81
2021/01/11 07:37:50;;;;;;;45.73;26.07;;;;;;;-0.01;82.50;100966.55;1724185;82;25812;-80
2021/01/11 07:40:16;;;;;;;43.80;25.97;;;;;;;0.02;82.70;100962.16;1719436;81;25688;-80
2021/01/11 07:42:43;;;;;;;40.95;26.80;;;;;;;0.06;82.82;100961.93;1685520;83;25806;-79
2021/01/11 07:45:12;;;;;;;46.13;28.00;;;;;;;0.06;82.75;100961.93;1691346;83;26390;-80
2021/01/11 07:47:39;;;;;;;43.55;26.42;;;;;;;0.11;82.78;100970.66;1711393;82;25983;-80
2021/01/11 07:50:08;;;;;;;44.65;29.15;;;;;;;0.07;82.68;100962.75;1709032;82;25778;-80
2021/01/11 07:52:35;;;;;;;47.88;29.25;;;;;;;0.11;82.95;100964.23;1710438;82;25510;-81
2021/01/11 07:55:11;;;;;;;46.60;28.00;;;;;;;0.15;83.00;100965.28;1710748;82;26412;-81
2021/01/11 07:57:37;;;;;;;47.58;29.75;;;;;;;0.15;83.02;100963.99;1711635;82;25767;-81
2021/01/11 08:00:11;;;;;;;48.85;29.85;;;;;;;0.21;83.09;100962.83;1711506;82;25794;-81
2021/01/11 08:03:04;;;;;;;50.03;29.25;;;;;;;0.21;83.08;100966.22;1711859;82;26381;-79
2021/01/11 08:05:30;;;;;;;52.13;29.82;;;;;;;0.24;83.14;100967.80;1676934;83;25862;-78
2021/01/11 08:08:05;;;;;;;47.93;29.52;;;;;;;0.31;83.30;100961.88;1712012;82;26414;-79
2021/01/11 08:10:34;;;;;;;49.95;30.05;;;;;;;0.34;83.18;100961.25;1712039;82;25758;-81
2021/01/11 08:13:05;;;;;;;49.18;31.70;;;;;;;0.34;83.14;100963.00;1719630;82;25575;-80
2021/01/11 08:15:31;;;;;;;54.58;29.95;;;;;;;0.38;83.22;100967.04;1713972;82;25545;-81
2021/01/11 08:18:03;;;;;;;54.05;31.15;;;;;;;0.39;83.18;100966.97;1713050;82;25625;-80
2021/01/11 08:20:29;;;;;;;56.00;32.28;;;;;;;0.39;83.22;100968.25;1713894;82;26434;-80
2021/01/11 08:22:56;;;;;;;51.48;29.67;;;;;;;0.47;83.36;100968.30;1711417;82;26349;-82
2021/01/11 08:25:24;;;;;;;54.73;31.25;;;;;;;0.48;83.29;100963.05;1704699;82;26000;-80
2021/01/11 08:27:53;;;;;;;48.10;29.48;;;;;;;0.50;83.20;100955.27;1706717;82;25924;-81
2021/01/11 08:30:24;;;;;;;54.53;31.97;;;;;;;0.50;83.16;100956.09;1698212;82;25975;-79
2021/01/11 08:32:52;;;;;;;51.42;30.70;;;;;;;0.52;83.24;100954.70;1704484;82;25855;-79
2021/01/11 08:35:23;;;;;;;55.25;30.02;;;;;;;0.52;83.18;100959.84;1704720;82;25812;-79
2021/01/11 08:37:50;;;;;;;52.60;30.82;;;;;;;0.55;83.33;100957.95;1712251;82;26386;-80
2021/01/11 08:40:26;;;;;;;50.60;29.67;;;;;;;0.58;83.23;100960.81;1693335;82;26274;-81
2021/01/11 08:42:55;;;;;;;54.60;31.68;;;;;;;0.61;83.32;100961.92;1704622;82;25899;-80
2021/01/11 08:45:36;;;;;;;54.85;30.05;;;;;;;0.64;83.26;100958.71;1703343;82;26320;-80
2021/01/11 08:48:16;;;;;;;49.77;28.83;;;;;;;0.65;82.95;100954.39;1702917;82;26415;-80
2021/01/11 08:50:54;;;;;;;53.13;28.92;;;;;;;0.58;82.98;100956.95;1696648;82;26385;-81
2021/01/11 08:53:26;;;;;;;51.20;29.50;;;;;;;0.60;83.18;100956.39;1687227;83;25778;-80
2021/01/11 08:56:01;;;;;;;50.45;29.90;;;;;;;0.62;83.24;100954.10;1699649;82;25794;-83
2021/01/11 08:58:30;;;;;;;50.83;29.65;;;;;;;0.68;83.23;100955.96;1711502;83;25849;-81
2021/01/11 09:01:15;;;;;;;45.88;27.52;;;;;;;0.69;83.11;100952.50;1680325;83;25699;-80
2021/01/11 09:03:49;;;;;;;51.63;28.17;;;;;;;0.67;83.01;100953.85;1713442;82;25688;-81
2021/01/11 09:06:43;;;;;;;48.55;27.15;;;;;;;0.71;83.10;100956.64;1698861;84;26317;-81
2021/01/11 09:09:17;;;;;;;50.43;28.45;;;;;;;0.73;83.03;100960.39;1699213;82;25892;-81
2021/01/11 09:11:48;;;;;;;53.45;28.52;;;;;;;0.75;82.97;100959.86;1706369;83;25913;-81
2021/01/11 09:14:18;;;;;;;45.53;27.13;;;;;;;0.78;83.09;100954.07;1684125;83;25747;-79
2021/01/11 09:16:47;;;;;;;47.20;27.80;;;;;;;0.84;83.18;100955.46;1715946;82;26042;-80
2021/01/11 09:19:17;;;;;;;45.48;27.98;;;;;;;0.86;83.08;100951.06;1711206;82;25834;-82
2021/01/11 09:21:47;;;;;;;42.40;25.45;;;;;;;0.86;82.87;100949.31;1710785;82;25799;-81
2021/01/11 09:24:13;;;;;;;43.02;24.32;;;;;;;0.89;82.91;100949.13;1713158;82;26660;-82
2021/01/11 09:26:42;;;;;;;47.05;25.25;;;;;;;0.94;82.73;100950.16;1701952;82;26373;-80
2021/01/11 09:29:10;;;;;;;44.30;24.43;;;;;;;0.93;82.67;100949.80;1692959;82;26019;-84
2021/01/11 09:31:36;;;;;;;41.20;25.62;;;;;;;0.96;82.82;100951.38;1690736;82;25854;-83
2021/01/11 09:34:04;;;;;;;43.90;24.43;;;;;;;1.02;82.86;100951.02;1698594;82;25864;-80
2021/01/11 09:36:33;;;;;;;44.25;24.43;;;;;;;1.09;82.82;100952.30;1700014;82;25776;-79
2021/01/11 09:39:00;;;;;;;42.43;24.75;;;;;;;1.11;82.39;100947.89;1698010;82;25841;-82
2021/01/11 09:41:26;;;;;;;44.25;25.17;;;;;;;1.10;82.30;100939.81;1698570;83;26531;-81
2021/01/11 09:43:53;;;;;;;40.83;23.15;;;;;;;1.12;82.41;100939.27;1699524;82;25800;-81
2021/01/11 09:46:19;;;;;;;39.85;23.15;;;;;;;1.17;81.96;100946.70;1690259;84;26412;-81
2021/01/11 09:48:47;;;;;;;41.30;22.52;;;;;;;1.16;81.71;100942.48;1665032;84;26557;-81
2021/01/11 09:51:15;;;;;;;47.05;23.50;;;;;;;1.18;81.85;100939.38;1652472;85;25844;-80
2021/01/11 09:53:42;;;;;;;41.10;23.05;;;;;;;1.19;81.92;100938.44;1652067;85;26267;-79
2021/01/11 09:56:08;;;;;;;40.20;21.90;;;;;;;1.24;81.87;100939.83;1681187;84;26284;-80
2021/01/11 09:58:35;;;;;;;42.40;22.17;;;;;;;1.23;81.24;100936.07;1680870;84;26414;-79
2021/01/11 10:01:01;;;;;;;44.48;22.75;;;;;;;1.23;81.46;100931.74;1679366;84;25764;-80
2021/01/11 10:03:27;;;;;;;37.38;23.00;;;;;;;1.24;81.11;100932.09;1671695;84;25801;-81
2021/01/11 10:05:59;;;;;;;44.77;24.20;;;;;;;1.25;81.37;100931.64;1669363;84;25819;-78
2021/01/11 10:08:25;;;;;;;38.88;22.98;;;;;;;1.30;81.39;100927.87;1670583;84;26690;-78
2021/01/11 10:10:52;;;;;;;39.23;23.02;;;;;;;1.36;81.54;100924.56;1674855;84;25761;-80
2021/01/11 10:13:21;;;;;;;31.10;20.02;;;;;;;1.42;81.33;100930.19;1670328;84;25912;-81
2021/01/11 10:15:46;;;;;;;37.08;21.50;;;;;;;1.42;80.88;100923.75;1675245;84;25839;-81
2021/01/11 10:18:13;;;;;;;37.80;22.65;;;;;;;1.47;81.20;100917.02;1670339;84;25964;-80
2021/01/11 10:20:43;;;;;;;34.83;22.10;;;;;;;1.52;80.99;100918.86;1664402;84;25758;-79
2021/01/11 10:23:09;;;;;;;37.50;21.27;;;;;;;1.54;80.91;100908.83;1669672;84;26350;-79
2021/01/11 10:25:36;;;;;;;36.85;20.30;;;;;;;1.62;80.88;100915.27;1668709;84;26344;-83
2021/01/11 10:28:02;;;;;;;33.67;21.12;;;;;;;1.66;80.01;100912.86;1667821;84;25878;-83
2021/01/11 10:30:29;;;;;;;36.08;19.80;;;;;;;1.65;79.95;100915.08;1654608;85;25889;-80
2021/01/11 10:32:58;;;;;;;35.00;20.97;;;;;;;1.65;79.63;100916.38;1671916;84;25875;-81
2021/01/11 10:35:25;;;;;;;43.53;23.47;;;;;;;1.62;79.96;100907.55;1669081;84;26217;-81
2021/01/11 10:37:55;;;;;;;38.35;22.93;;;;;;;1.74;80.42;100917.91;1673449;83;26706;-81
2021/01/11 10:40:22;;;;;;;38.05;22.90;;;;;;;1.78;80.01;100912.95;1651968;83;26268;-80
2021/01/11 10:42:50;;;;;;;37.33;21.55;;;;;;;1.84;80.04;100910.91;1673227;84;25800;-80
2021/01/11 10:45:16;;;;;;;38.08;21.65;;;;;;;1.86;80.06;100913.77;1647938;84;25792;-80
2021/01/11 10:47:43;;;;;;;37.35;22.77;;;;;;;1.89;79.34;100910.17;1671100;83;25833;-79
2021/01/11 10:50:12;;;;;;;38.00;22.58;;;;;;;1.87;79.20;100907.67;1677623;84;27109;-79
2021/01/11 10:52:40;;;;;;;36.10;20.85;;;;;;;1.90;79.33;100907.95;1667945;84;25826;-80
2021/01/11 10:55:11;;;;;;;34.30;19.32;;;;;;;1.83;79.24;100887.33;1670554;84;26372;-82
2021/01/11 10:57:38;;;;;;;35.52;20.68;;;;;;;1.83;79.24;100887.33;1667350;84;25737;-80
2021/01/11 11:00:09;;;;;;;30.43;17.35;;;;;;;2.00;78.81;100911.15;1670411;84;25864;-81
2021/01/11 11:02:37;;;;;;;31.62;17.98;;;;;;;2.01;77.21;100904.23;1671972;84;25836;-81
2021/01/11 11:05:07;;;;;;;40.28;21.27;;;;;;;1.97;76.19;100901.03;1669076;84;26350;-82
2021/01/11 11:07:38;;;;;;;32.85;20.10;;;;;;;1.98;77.82;100896.23;1671125;84;25522;-80
2021/01/11 11:10:09;;;;;;;33.40;20.90;;;;;;;1.98;77.63;100886.39;1671831;84;25578;-79
2021/01/11 11:12:36;;;;;;;36.90;20.15;;;;;;;2.01;77.99;100890.05;1672157;84;25890;-80
2021/01/11 11:15:03;;;;;;;31.23;19.12;;;;;;;2.00;77.15;100887.13;1663880;84;25701;-81
2021/01/11 11:17:33;;;;;;;31.48;17.60;;;;;;;1.96;76.93;100880.49;1653262;85;25778;-80
2021/01/11 11:20:00;;;;;;;30.05;18.75;;;;;;;1.88;76.51;100886.16;1680210;84;25727;-80
2021/01/11 11:22:26;;;;;;;32.98;18.35;;;;;;;1.83;75.23;100880.89;1671395;84;25819;-80
2021/01/11 11:24:53;;;;;;;32.03;19.57;;;;;;;1.80;76.34;100881.94;1673483;84;25772;-81
2021/01/11 11:27:19;;;;;;;32.65;19.45;;;;;;;1.79;76.17;100881.55;1671461;84;25751;-80
2021/01/11 11:29:48;;;;;;;34.75;20.92;;;;;;;1.73;75.48;100880.66;1667552;84;25777;-80
2021/01/11 11:32:16;;;;;;;37.05;21.93;;;;;;;1.74;75.88;100871.98;1674566;84;26411;-81